createdAt,value
2019-04-16T00:00:29.904Z,2.20
2019-04-16T00:02:58.678Z,2.20
2019-04-16T00:05:31.221Z,2.30
2019-04-16T00:08:26.628Z,2.13
2019-04-16T00:10:49.826Z,2.20
2019-04-16T00:13:25.031Z,2.30
2019-04-16T00:15:54.205Z,2.23
2019-04-16T00:18:22.959Z,2.33
2019-04-16T00:21:10.813Z,1.90
2019-04-16T00:23:56.936Z,2.27
2019-04-16T00:26:26.836Z,2.30
2019-04-16T00:28:55.858Z,2.33
2019-04-16T00:31:24.776Z,2.17
2019-04-16T00:33:53.507Z,2.27
2019-04-16T00:36:22.147Z,2.00
2019-04-16T00:38:53.856Z,2.30
2019-04-16T00:41:21.181Z,1.93
2019-04-16T00:43:49.808Z,2.13
2019-04-16T00:46:18.838Z,2.47
2019-04-16T00:48:47.486Z,2.03
2019-04-16T00:51:15.808Z,2.20
2019-04-16T00:53:44.115Z,2.80
2019-04-16T00:56:13.391Z,2.33
2019-04-16T00:58:42.512Z,2.30
2019-04-16T01:01:11.357Z,2.20
2019-04-16T01:03:40.376Z,2.50
2019-04-16T01:06:08.926Z,2.20
2019-04-16T01:08:37.954Z,2.43
2019-04-16T01:11:06.972Z,1.90
2019-04-16T01:13:35.610Z,2.00
2019-04-16T01:16:04.257Z,2.20
2019-04-16T01:18:33.174Z,2.17
2019-04-16T01:21:01.918Z,1.90
2019-04-16T01:23:30.236Z,2.07
2019-04-16T01:25:58.991Z,1.93
2019-04-16T01:28:31.998Z,2.30
2019-04-16T01:31:19.347Z,2.10
2019-04-16T01:33:55.435Z,1.73
2019-04-16T01:36:40.987Z,2.00
2019-04-16T01:39:17.633Z,1.97
2019-04-16T01:41:40.306Z,1.90
2019-04-16T01:44:09.014Z,1.97
2019-04-16T01:46:37.839Z,1.57
2019-04-16T01:49:09.704Z,1.63
2019-04-16T01:51:37.768Z,2.03
2019-04-16T01:54:07.272Z,2.13
2019-04-16T01:56:35.982Z,1.77
2019-04-16T01:59:05.917Z,1.97
2019-04-16T02:01:35.151Z,1.40
2019-04-16T02:04:03.802Z,2.00
2019-04-16T02:06:32.643Z,2.00
2019-04-16T02:09:03.035Z,1.80
2019-04-16T02:11:32.068Z,1.77
2019-04-16T02:14:00.779Z,1.70
2019-04-16T02:16:29.094Z,1.77
2019-04-16T02:19:00.797Z,1.70
2019-04-16T02:21:28.073Z,1.47
2019-04-16T02:23:56.842Z,1.57
2019-04-16T02:26:25.739Z,1.70
2019-04-16T02:28:56.482Z,1.57
2019-04-16T02:31:24.883Z,1.57
2019-04-16T02:33:53.233Z,1.50
2019-04-16T02:36:21.990Z,1.77
2019-04-16T02:38:53.463Z,1.60
2019-04-16T02:41:23.255Z,1.70
2019-04-16T02:43:51.514Z,1.63
2019-04-16T02:46:20.496Z,1.60
2019-04-16T02:48:51.573Z,1.77
2019-04-16T02:51:39.784Z,1.80
2019-04-16T02:54:24.095Z,2.00
2019-04-16T02:57:13.128Z,1.97
2019-04-16T02:59:45.743Z,1.90
2019-04-16T03:02:25.847Z,1.80
2019-04-16T03:05:00.991Z,1.40
2019-04-16T03:07:32.694Z,1.80
2019-04-16T03:10:01.393Z,1.90
2019-04-16T03:12:30.155Z,1.90
2019-04-16T03:15:01.308Z,1.90
2019-04-16T03:17:35.417Z,2.00
2019-04-16T03:20:05.518Z,1.90
2019-04-16T03:22:34.515Z,2.27
2019-04-16T03:25:03.469Z,2.07
2019-04-16T03:27:32.224Z,2.37
2019-04-16T03:30:03.689Z,1.70
2019-04-16T03:32:35.222Z,1.97
2019-04-16T03:35:01.282Z,2.00
2019-04-16T03:37:30.226Z,1.90
2019-04-16T03:40:14.433Z,2.10
2019-04-16T03:42:30.913Z,2.20
2019-04-16T03:44:59.546Z,1.70
2019-04-16T03:47:28.470Z,1.83
2019-04-16T03:49:59.452Z,2.20
2019-04-16T03:52:27.510Z,2.00
2019-04-16T03:54:56.276Z,2.20
2019-04-16T03:57:25.100Z,2.07
2019-04-16T03:59:53.710Z,2.17
2019-04-16T04:02:23.135Z,1.80
2019-04-16T04:04:51.795Z,1.93
2019-04-16T04:07:20.997Z,1.90
2019-04-16T04:09:51.522Z,2.00
2019-04-16T04:12:20.342Z,2.07
2019-04-16T04:14:51.255Z,2.07
2019-04-16T04:17:19.879Z,2.13
2019-04-16T04:19:48.410Z,2.40
2019-04-16T04:22:17.216Z,2.20
2019-04-16T04:24:45.782Z,2.50
2019-04-16T04:27:18.665Z,2.20
2019-04-16T04:29:46.503Z,2.60
2019-04-16T04:32:15.446Z,2.10
2019-04-16T04:34:45.447Z,2.40
2019-04-16T04:37:14.683Z,2.20
2019-04-16T04:39:44.768Z,2.53
2019-04-16T04:42:13.705Z,2.33
2019-04-16T04:44:42.545Z,2.33
2019-04-16T04:47:11.197Z,2.50
2019-04-16T04:49:40.119Z,2.47
2019-04-16T04:52:13.638Z,2.33
2019-04-16T04:54:39.290Z,2.60
2019-04-16T04:57:07.631Z,2.30
2019-04-16T04:59:37.427Z,2.60
2019-04-16T05:02:06.639Z,3.07
2019-04-16T05:04:55.494Z,2.73
2019-04-16T05:07:25.670Z,2.50
2019-04-16T05:09:54.071Z,2.97
2019-04-16T05:12:23.010Z,2.73
2019-04-16T05:14:57.127Z,3.50
2019-04-16T05:17:26.230Z,3.07
2019-04-16T05:19:55.208Z,3.50
2019-04-16T05:22:24.662Z,3.30
2019-04-16T05:24:53.482Z,3.70
2019-04-16T05:27:22.223Z,3.70
2019-04-16T05:29:51.131Z,3.20
2019-04-16T05:32:19.881Z,3.73
2019-04-16T05:34:48.711Z,4.03
2019-04-16T05:37:20.115Z,3.50
2019-04-16T05:39:48.142Z,3.30
2019-04-16T05:42:17.297Z,3.67
2019-04-16T05:44:46.203Z,2.93
2019-04-16T05:47:17.863Z,3.27
2019-04-16T05:49:45.442Z,3.30
2019-04-16T05:52:14.545Z,3.00
2019-04-16T05:55:02.468Z,3.40
2019-04-16T05:57:33.654Z,3.57
2019-04-16T06:00:07.542Z,3.27
2019-04-16T06:02:39.358Z,2.93
2019-04-16T06:05:08.240Z,3.03
2019-04-16T06:07:38.083Z,3.60
2019-04-16T06:10:08.111Z,3.33
2019-04-16T06:13:13.936Z,3.20
2019-04-16T06:16:03.706Z,3.50
2019-04-16T06:18:41.143Z,3.57
2019-04-16T06:21:38.139Z,3.40
2019-04-16T06:24:22.403Z,3.83
2019-04-16T06:27:09.032Z,3.83
2019-04-16T06:30:02.409Z,3.50
2019-04-16T06:32:49.594Z,3.53
2019-04-16T06:35:43.468Z,3.83
2019-04-16T06:38:21.987Z,4.03
2019-04-16T06:41:07.994Z,3.80
2019-04-16T06:43:39.794Z,4.30
2019-04-16T06:46:39.967Z,4.07
2019-04-16T06:49:19.789Z,4.37
2019-04-16T06:52:17.934Z,3.53
2019-04-16T06:55:03.553Z,3.47
2019-04-16T06:57:49.227Z,4.07
2019-04-16T07:00:35.337Z,4.30
2019-04-16T07:03:25.826Z,4.00
2019-04-16T07:06:13.090Z,5.60
2019-04-16T07:09:09.623Z,4.60
2019-04-16T07:11:39.336Z,3.90
2019-04-16T07:14:07.791Z,4.10
2019-04-16T07:16:36.123Z,4.40
2019-04-16T07:19:07.204Z,4.10
2019-04-16T07:21:34.470Z,4.10
2019-04-16T07:24:02.896Z,3.80
2019-04-16T07:26:31.354Z,3.70
2019-04-16T07:29:16.786Z,3.90
2019-04-16T07:32:03.246Z,3.80
2019-04-16T07:34:39.732Z,4.33
2019-04-16T07:37:26.994Z,3.97
2019-04-16T07:40:16.996Z,4.23
2019-04-16T07:43:10.482Z,3.83
2019-04-16T07:45:43.976Z,4.57
2019-04-16T07:48:17.514Z,3.60
2019-04-16T07:51:04.802Z,4.00
2019-04-16T07:53:52.439Z,3.93
2019-04-16T07:56:23.742Z,3.97
2019-04-16T07:58:52.102Z,4.00
2019-04-16T08:01:20.503Z,4.13
2019-04-16T08:03:48.855Z,3.83
2019-04-16T08:06:17.174Z,3.63
2019-04-16T08:08:45.521Z,4.33
2019-04-16T08:11:14.235Z,4.73
2019-04-16T08:13:43.094Z,3.47
2019-04-16T08:16:11.428Z,4.37
2019-04-16T08:18:48.749Z,2.93
2019-04-16T08:21:17.164Z,4.30
2019-04-16T08:23:52.893Z,3.83
2019-04-16T08:26:19.254Z,3.30
2019-04-16T08:28:47.594Z,3.77
2019-04-16T08:31:25.656Z,3.00
2019-04-16T08:33:53.980Z,2.97
2019-04-16T08:36:22.410Z,3.07
2019-04-16T08:38:50.779Z,3.67
2019-04-16T08:41:21.116Z,2.90
2019-04-16T08:43:49.168Z,2.67
2019-04-16T08:46:17.484Z,2.50
2019-04-16T08:48:48.933Z,2.50
2019-04-16T08:51:29.332Z,2.40
2019-04-16T08:53:46.745Z,2.00
2019-04-16T08:56:15.799Z,2.50
2019-04-16T08:58:44.154Z,2.30
2019-04-16T09:01:18.801Z,2.23
2019-04-16T09:03:45.955Z,2.17
2019-04-16T09:06:14.401Z,2.17
2019-04-16T09:09:13.409Z,2.30
2019-04-16T09:11:39.159Z,2.27
2019-04-16T09:14:07.704Z,2.33
2019-04-16T09:16:43.443Z,2.40
2019-04-16T09:19:12.538Z,2.07
2019-04-16T09:21:44.168Z,2.23
2019-04-16T09:24:21.723Z,2.17
2019-04-16T09:27:01.076Z,2.90
2019-04-16T09:29:48.308Z,3.20
2019-04-16T09:32:28.188Z,3.03
2019-04-16T09:35:18.666Z,3.70
2019-04-16T09:38:03.095Z,2.97
2019-04-16T09:40:49.381Z,2.90
2019-04-16T09:43:20.955Z,2.77
2019-04-16T09:45:49.283Z,2.80
2019-04-16T09:48:17.802Z,3.07
2019-04-16T09:50:47.922Z,3.00
2019-04-16T09:53:17.414Z,3.20
2019-04-16T09:55:47.616Z,3.67
2019-04-16T09:58:22.550Z,3.83
2019-04-16T10:01:01.133Z,4.90
2019-04-16T10:03:37.305Z,3.47
2019-04-16T10:06:06.010Z,3.37
2019-04-16T10:08:34.615Z,3.13
2019-04-16T10:11:06.066Z,3.50
2019-04-16T10:13:36.051Z,3.10
2019-04-16T10:16:03.148Z,3.40
2019-04-16T10:18:34.677Z,3.47
2019-04-16T10:21:01.829Z,2.90
2019-04-16T10:23:38.490Z,2.53
2019-04-16T10:26:07.079Z,2.20
2019-04-16T10:28:37.895Z,2.30
2019-04-16T10:31:06.444Z,2.47
2019-04-16T10:33:34.835Z,2.07
2019-04-16T10:36:04.886Z,2.17
2019-04-16T10:38:39.178Z,2.53
2019-04-16T10:41:11.431Z,2.60
2019-04-16T10:43:55.608Z,2.70
2019-04-16T10:47:01.310Z,1.90
2019-04-16T10:49:39.370Z,2.40
2019-04-16T10:52:22.432Z,2.00
2019-04-16T10:54:59.621Z,2.17
2019-04-16T10:57:40.748Z,2.03
2019-04-16T11:00:31.259Z,2.00
2019-04-16T11:03:06.611Z,1.90
2019-04-16T11:05:48.723Z,1.80
2019-04-16T11:08:17.087Z,2.07
2019-04-16T11:10:45.659Z,2.00
2019-04-16T11:13:30.278Z,1.97
2019-04-16T11:16:02.194Z,1.60
2019-04-16T11:18:30.537Z,2.07
2019-04-16T11:20:58.994Z,2.10
2019-04-16T11:23:27.403Z,1.80
2019-04-16T11:25:55.830Z,1.83
2019-04-16T11:28:24.213Z,2.07
2019-04-16T11:30:54.711Z,2.20
2019-04-16T11:33:23.456Z,1.60
2019-04-16T11:35:53.057Z,1.73
2019-04-16T11:38:21.776Z,1.73
2019-04-16T11:40:50.177Z,2.10
2019-04-16T11:43:18.676Z,2.10
2019-04-16T11:45:47.178Z,1.80
2019-04-16T11:48:15.819Z,2.40
2019-04-16T11:50:44.347Z,1.60
2019-04-16T11:53:12.709Z,1.77
2019-04-16T11:55:41.079Z,2.07
2019-04-16T11:58:21.116Z,2.00
2019-04-16T12:00:57.100Z,2.00
2019-04-16T12:03:36.544Z,2.03
2019-04-16T12:06:28.295Z,2.20
2019-04-16T12:09:08.531Z,2.17
2019-04-16T12:11:44.472Z,2.13
2019-04-16T12:14:30.660Z,2.60
2019-04-16T12:16:56.766Z,3.13
2019-04-16T12:19:45.268Z,2.73
2019-04-16T12:22:20.076Z,2.70
2019-04-16T12:25:16.827Z,3.57
2019-04-16T12:27:54.892Z,3.63
2019-04-16T12:30:45.131Z,2.50
2019-04-16T12:33:36.041Z,2.70
2019-04-16T12:36:26.727Z,2.40
2019-04-16T12:39:19.610Z,2.30
2019-04-16T12:42:06.888Z,2.87
2019-04-16T12:44:45.850Z,2.90
2019-04-16T12:47:25.395Z,3.10
2019-04-16T12:50:17.166Z,3.17
2019-04-16T12:52:59.961Z,2.90
2019-04-16T12:55:46.468Z,2.27
2019-04-16T12:58:33.659Z,2.10
2019-04-16T13:01:10.343Z,3.37
2019-04-16T13:04:12.640Z,2.43
2019-04-16T13:07:00.712Z,2.73
2019-04-16T13:09:45.268Z,2.77
2019-04-16T13:12:39.683Z,2.57
2019-04-16T13:15:42.453Z,2.43
2019-04-16T13:18:24.214Z,2.20
2019-04-16T13:21:17.907Z,1.93
2019-04-16T13:23:48.900Z,2.40
2019-04-16T13:26:29.354Z,2.70
2019-04-16T13:28:58.288Z,2.67
2019-04-16T13:31:27.171Z,1.70
2019-04-16T13:33:55.908Z,1.77
2019-04-16T13:36:26.905Z,2.20
2019-04-16T13:38:59.943Z,1.67
2019-04-16T13:41:28.323Z,1.90
2019-04-16T13:44:01.580Z,2.23
2019-04-16T13:46:30.273Z,2.00
2019-04-16T13:49:03.533Z,1.97
2019-04-16T13:51:32.175Z,1.77
2019-04-16T13:54:28.025Z,2.00
2019-04-16T13:57:00.245Z,1.93
2019-04-16T13:59:50.643Z,1.80
2019-04-16T14:02:34.139Z,1.80
2019-04-16T14:05:04.725Z,2.30
2019-04-16T14:07:33.501Z,2.07
2019-04-16T14:10:01.825Z,2.03
2019-04-16T14:12:41.737Z,2.30
2019-04-16T14:15:00.314Z,5.37
2019-04-16T14:17:29.311Z,2.40
2019-04-16T14:19:57.718Z,1.60
2019-04-16T14:22:26.114Z,2.13
2019-04-16T14:24:54.449Z,1.87
2019-04-16T14:27:22.759Z,1.83
2019-04-16T14:29:51.087Z,1.87
2019-04-16T14:32:19.536Z,2.10
2019-04-16T14:34:52.582Z,2.27
2019-04-16T14:37:21.077Z,2.10
2019-04-16T14:40:07.976Z,2.13
2019-04-16T14:42:36.883Z,2.00
2019-04-16T14:45:24.386Z,1.70
2019-04-16T14:47:53.183Z,1.83
2019-04-16T14:50:23.411Z,2.20
2019-04-16T14:52:52.923Z,1.77
2019-04-16T14:55:28.577Z,1.97
2019-04-16T14:58:07.239Z,1.67
2019-04-16T15:00:58.212Z,1.70
2019-04-16T15:03:54.972Z,1.50
2019-04-16T15:06:41.886Z,1.30
2019-04-16T15:09:17.762Z,1.60
2019-04-16T15:12:07.442Z,1.40
2019-04-16T15:14:39.092Z,1.47
2019-04-16T15:17:29.455Z,1.77
2019-04-16T15:20:19.387Z,1.90
2019-04-16T15:23:07.246Z,2.00
2019-04-16T15:25:45.330Z,1.90
2019-04-16T15:28:19.250Z,2.30
2019-04-16T15:31:01.192Z,2.00
2019-04-16T15:33:53.155Z,2.40
2019-04-16T15:36:29.295Z,2.20
2019-04-16T15:39:21.347Z,2.10
2019-04-16T15:42:16.356Z,2.80
2019-04-16T15:44:46.877Z,1.70
2019-04-16T15:47:33.115Z,2.07
2019-04-16T15:50:27.207Z,1.90
2019-04-16T15:52:58.546Z,1.53
2019-04-16T15:55:42.537Z,1.63
2019-04-16T15:58:42.465Z,1.50
2019-04-16T16:01:35.876Z,1.70
2019-04-16T16:04:32.631Z,1.47
2019-04-16T16:07:13.375Z,1.70
2019-04-16T16:10:13.793Z,1.87
2019-04-16T16:12:40.633Z,1.83
2019-04-16T16:15:09.883Z,1.70
2019-04-16T16:17:38.457Z,1.60
2019-04-16T16:20:10.238Z,1.70
2019-04-16T16:22:37.283Z,2.00
2019-04-16T16:25:06.574Z,1.83
2019-04-16T16:27:35.375Z,2.33
2019-04-16T16:30:03.827Z,3.40
2019-04-16T16:32:32.847Z,1.90
2019-04-16T16:35:01.514Z,1.93
2019-04-16T16:37:30.151Z,1.50
2019-04-16T16:39:58.779Z,1.57
2019-04-16T16:42:29.071Z,1.90
2019-04-16T16:44:58.567Z,1.50
2019-04-16T16:47:39.670Z,1.70
2019-04-16T16:50:10.304Z,1.80
2019-04-16T16:52:56.971Z,1.60
2019-04-16T16:55:31.163Z,1.40
2019-04-16T16:58:27.444Z,1.63
2019-04-16T17:01:14.762Z,1.80
2019-04-16T17:04:05.088Z,1.77
2019-04-16T17:06:33.395Z,2.10
2019-04-16T17:09:01.714Z,2.00
2019-04-16T17:11:30.059Z,2.10
2019-04-16T17:14:01.483Z,2.00
2019-04-16T17:16:28.360Z,2.00
2019-04-16T17:18:56.830Z,2.20
2019-04-16T17:21:25.239Z,2.30
2019-04-16T17:23:53.837Z,2.27
2019-04-16T17:26:22.387Z,2.20
2019-04-16T17:28:50.704Z,2.50
2019-04-16T17:31:19.031Z,2.33
2019-04-16T17:33:47.378Z,2.30
2019-04-16T17:36:15.692Z,2.50
2019-04-16T17:38:44.024Z,2.50
2019-04-16T17:41:15.705Z,2.40
2019-04-16T17:44:04.001Z,3.20
2019-04-16T17:47:06.622Z,2.63
2019-04-16T17:49:52.887Z,2.70
2019-04-16T17:52:30.919Z,2.50
2019-04-16T17:55:24.341Z,2.33
2019-04-16T17:57:58.304Z,2.80
2019-04-16T18:00:45.624Z,2.53
2019-04-16T18:03:37.675Z,2.50
2019-04-16T18:06:11.007Z,2.40
2019-04-16T18:08:58.233Z,2.80
2019-04-16T18:11:41.004Z,2.53
2019-04-16T18:14:34.150Z,2.50
2019-04-16T18:17:26.485Z,2.57
2019-04-16T18:20:16.296Z,2.50
2019-04-16T18:23:06.689Z,2.03
2019-04-16T18:26:00.451Z,2.37
2019-04-16T18:28:33.240Z,2.37
2019-04-16T18:31:07.281Z,2.33
2019-04-16T18:33:47.619Z,2.47
2019-04-16T18:36:35.201Z,2.40
2019-04-16T18:39:21.552Z,2.30
2019-04-16T18:42:00.402Z,2.70
2019-04-16T18:44:55.108Z,2.30
2019-04-16T18:48:02.694Z,2.47
2019-04-16T18:50:28.059Z,2.90
2019-04-16T18:52:55.385Z,2.67
2019-04-16T18:55:23.803Z,2.50
2019-04-16T18:57:52.400Z,2.33
2019-04-16T19:00:32.025Z,2.60
2019-04-16T19:03:00.719Z,2.47
2019-04-16T19:05:29.043Z,2.73
2019-04-16T19:08:00.159Z,2.40
2019-04-16T19:10:27.832Z,2.43
2019-04-16T19:12:56.557Z,2.53
2019-04-16T19:15:25.235Z,2.90
2019-04-16T19:17:53.543Z,2.30
2019-04-16T19:20:21.871Z,2.40
2019-04-16T19:22:50.750Z,2.37
2019-04-16T19:25:19.244Z,2.53
2019-04-16T19:27:49.097Z,1.93
2019-04-16T19:30:17.792Z,2.83
2019-04-16T19:32:46.129Z,2.60
2019-04-16T19:35:19.109Z,2.50
2019-04-16T19:37:44.934Z,2.47
2019-04-16T19:40:16.033Z,2.50
2019-04-16T19:42:43.379Z,2.40
2019-04-16T19:45:12.709Z,2.23
2019-04-16T19:47:41.406Z,1.90
2019-04-16T19:50:09.866Z,2.27
2019-04-16T19:52:38.255Z,2.10
2019-04-16T19:55:06.905Z,2.30
2019-04-16T19:57:36.734Z,2.40
2019-04-16T20:00:05.411Z,2.07
2019-04-16T20:02:34.043Z,2.30
2019-04-16T20:05:02.548Z,2.60
2019-04-16T20:07:33.020Z,2.33
2019-04-16T20:10:00.830Z,2.57
2019-04-16T20:12:29.149Z,2.73
2019-04-16T20:14:57.491Z,2.53
2019-04-16T20:17:25.798Z,3.10
2019-04-16T20:19:58.158Z,3.00
2019-04-16T20:22:27.399Z,2.90
2019-04-16T20:24:55.737Z,3.13
2019-04-16T20:27:24.056Z,3.20
2019-04-16T20:29:52.376Z,3.03
2019-04-16T20:32:20.782Z,3.03
2019-04-16T20:34:49.114Z,2.97
2019-04-16T20:37:17.430Z,3.00
2019-04-16T20:39:45.744Z,3.30
2019-04-16T20:42:14.058Z,3.07
2019-04-16T20:44:42.571Z,3.20
2019-04-16T20:47:10.989Z,3.20
2019-04-16T20:49:39.299Z,3.77
2019-04-16T20:52:07.669Z,3.67
2019-04-16T20:54:37.175Z,3.90
2019-04-16T20:57:05.695Z,3.83
2019-04-16T20:59:36.050Z,4.00
2019-04-16T21:02:04.266Z,3.70
2019-04-16T21:04:32.636Z,3.40
2019-04-16T21:07:01.351Z,3.43
2019-04-16T21:09:30.962Z,4.60
2019-04-16T21:11:59.316Z,3.90
2019-04-16T21:14:27.655Z,3.80
2019-04-16T21:16:55.976Z,3.70
2019-04-16T21:19:46.348Z,3.87
2019-04-16T21:22:14.624Z,3.40
2019-04-16T21:24:42.974Z,4.20
2019-04-16T21:27:11.892Z,3.87
2019-04-16T21:29:40.203Z,4.07
2019-04-16T21:32:14.059Z,3.93
2019-04-16T21:34:46.447Z,4.10
2019-04-16T21:37:20.389Z,4.70
2019-04-16T21:39:57.161Z,5.10
2019-04-16T21:42:25.822Z,5.30
2019-04-16T21:44:54.139Z,6.07
2019-04-16T21:47:23.677Z,6.10
2019-04-16T21:49:52.447Z,6.30
2019-04-16T21:52:23.060Z,4.77
2019-04-16T21:54:50.764Z,4.77
2019-04-16T21:57:19.191Z,4.63
2019-04-16T21:59:50.243Z,4.60
2019-04-16T22:02:28.890Z,4.70
2019-04-16T22:04:57.219Z,4.03
2019-04-16T22:07:25.657Z,4.63
2019-04-16T22:09:54.054Z,4.77
2019-04-16T22:12:22.394Z,4.90
2019-04-16T22:14:50.932Z,4.97
2019-04-16T22:17:20.830Z,5.03
2019-04-16T22:19:54.181Z,4.30
2019-04-16T22:22:19.121Z,4.40
2019-04-16T22:24:47.533Z,5.33
2019-04-16T22:27:15.967Z,5.00
2019-04-16T22:29:47.205Z,5.03
2019-04-16T22:32:14.439Z,4.80
2019-04-16T22:34:42.763Z,4.80
2019-04-16T22:37:11.082Z,4.60
2019-04-16T22:40:10.731Z,4.57
2019-04-16T22:43:07.060Z,5.17
2019-04-16T22:45:42.282Z,4.60
2019-04-16T22:48:10.601Z,5.20
2019-04-16T22:50:38.941Z,5.13
2019-04-16T22:53:07.271Z,5.00
2019-04-16T22:55:35.855Z,5.43
2019-04-16T22:58:05.257Z,5.67
2019-04-16T23:00:36.787Z,5.27
2019-04-16T23:03:05.254Z,6.00
2019-04-16T23:05:33.594Z,5.83
2019-04-16T23:08:01.954Z,5.70
2019-04-16T23:10:30.275Z,5.70
2019-04-16T23:13:00.683Z,6.23
2019-04-16T23:15:28.860Z,6.90
2019-04-16T23:17:58.114Z,6.73
2019-04-16T23:20:29.720Z,7.17
2019-04-16T23:22:57.242Z,7.70
2019-04-16T23:25:27.441Z,7.13
2019-04-16T23:27:55.559Z,7.70
2019-04-16T23:30:23.915Z,7.40
2019-04-16T23:32:52.379Z,7.70
2019-04-16T23:35:20.851Z,7.80
2019-04-16T23:37:49.318Z,7.20
2019-04-16T23:40:17.678Z,7.30
2019-04-16T23:43:13.243Z,7.93
2019-04-16T23:46:06.562Z,8.30
2019-04-16T23:48:58.296Z,7.10
2019-04-16T23:51:32.361Z,6.83
2019-04-16T23:54:08.002Z,6.70
2019-04-16T23:56:46.404Z,6.53
2019-04-16T23:59:22.026Z,5.90
